createdAt,value
2022-11-26T00:02:23.964Z,9.50
2022-11-26T00:04:53.125Z,9.47
2022-11-26T00:07:26.458Z,8.90
2022-11-26T00:09:57.145Z,8.07
2022-11-26T00:12:29.117Z,7.93
2022-11-26T00:14:56.955Z,7.50
2022-11-26T00:17:25.254Z,6.70
2022-11-26T00:19:52.940Z,6.90
2022-11-26T00:22:26.112Z,5.93
2022-11-26T00:24:56.180Z,7.33
2022-11-26T00:27:28.019Z,6.37
2022-11-26T00:29:56.714Z,5.90
2022-11-26T00:32:26.759Z,6.30
2022-11-26T00:34:55.700Z,6.23
2022-11-26T00:37:26.715Z,6.57
2022-11-26T00:39:57.376Z,6.67
2022-11-26T00:42:25.521Z,6.53
2022-11-26T00:44:53.435Z,5.87
2022-11-26T00:47:21.166Z,6.60
2022-11-26T00:49:49.292Z,7.13
2022-11-26T00:52:28.205Z,7.47
2022-11-26T00:54:58.854Z,6.43
2022-11-26T00:57:27.275Z,6.90
2022-11-26T00:59:55.350Z,5.83
2022-11-26T01:02:23.678Z,6.97
2022-11-26T01:04:51.897Z,5.90
2022-11-26T01:07:20.075Z,6.83
2022-11-26T01:09:48.999Z,7.63
2022-11-26T01:12:18.063Z,6.80
2022-11-26T01:14:45.790Z,7.20
2022-11-26T01:17:13.904Z,6.83
2022-11-26T01:19:47.674Z,7.10
2022-11-26T01:22:21.931Z,7.40
2022-11-26T01:24:50.956Z,8.33
2022-11-26T01:27:20.910Z,7.40
2022-11-26T01:29:49.995Z,7.23
2022-11-26T01:32:18.191Z,8.57
2022-11-26T01:34:47.417Z,8.73
2022-11-26T01:37:15.899Z,7.37
2022-11-26T01:39:43.973Z,8.57
2022-11-26T01:42:27.352Z,7.77
2022-11-26T01:44:55.949Z,7.40
2022-11-26T01:47:26.071Z,8.80
2022-11-26T01:50:33.082Z,8.37
2022-11-26T01:53:05.413Z,8.10
2022-11-26T01:55:37.421Z,9.33
2022-11-26T01:58:11.279Z,7.57
2022-11-26T02:00:40.049Z,8.63
2022-11-26T02:03:08.785Z,7.90
2022-11-26T02:05:43.248Z,7.80
2022-11-26T02:08:12.181Z,8.40
2022-11-26T02:10:40.192Z,8.40
2022-11-26T02:13:09.817Z,8.97
2022-11-26T02:15:46.678Z,7.47
2022-11-26T02:18:16.443Z,8.27
2022-11-26T02:20:55.170Z,8.10
2022-11-26T02:24:02.391Z,8.70
2022-11-26T02:27:04.283Z,7.90
2022-11-26T02:30:06.006Z,8.60
2022-11-26T02:32:52.854Z,8.43
2022-11-26T02:35:25.942Z,8.37
2022-11-26T02:37:57.077Z,8.20
2022-11-26T02:40:26.906Z,7.90
2022-11-26T02:42:55.004Z,7.60
2022-11-26T02:45:28.775Z,7.20
2022-11-26T02:48:00.613Z,7.40
2022-11-26T02:50:32.310Z,7.83
2022-11-26T02:53:01.928Z,7.90
2022-11-26T02:55:34.026Z,7.77
2022-11-26T02:58:02.916Z,6.90
2022-11-26T03:00:34.298Z,8.07
2022-11-26T03:03:08.594Z,7.60
2022-11-26T03:05:40.036Z,7.93
2022-11-26T03:08:08.976Z,7.50
2022-11-26T03:10:37.249Z,8.67
2022-11-26T03:13:05.250Z,6.93
2022-11-26T03:15:34.717Z,7.50
2022-11-26T03:18:02.656Z,7.63
2022-11-26T03:20:30.729Z,7.50
2022-11-26T03:22:58.513Z,7.40
2022-11-26T03:25:26.619Z,8.43
2022-11-26T03:27:56.238Z,7.93
2022-11-26T03:30:25.109Z,7.30
2022-11-26T03:32:54.405Z,7.50
2022-11-26T03:35:22.074Z,7.30
2022-11-26T03:37:50.733Z,7.90
2022-11-26T03:40:18.532Z,8.20
2022-11-26T03:42:46.783Z,7.70
2022-11-26T03:45:17.122Z,7.80
2022-11-26T03:47:44.862Z,7.33
2022-11-26T03:50:14.306Z,8.33
2022-11-26T03:52:43.158Z,8.20
2022-11-26T03:55:11.944Z,8.23
2022-11-26T03:57:41.471Z,10.20
2022-11-26T04:00:10.408Z,7.80
2022-11-26T04:02:38.722Z,10.83
2022-11-26T04:05:07.567Z,9.43
2022-11-26T04:07:37.045Z,9.90
2022-11-26T04:10:06.625Z,9.33
2022-11-26T04:12:34.414Z,9.50
2022-11-26T04:15:02.226Z,9.00
2022-11-26T04:17:29.931Z,7.97
2022-11-26T04:19:58.246Z,7.33
2022-11-26T04:22:27.047Z,6.33
2022-11-26T04:24:56.182Z,4.43
2022-11-26T04:27:23.857Z,5.20
2022-11-26T04:29:51.596Z,5.30
2022-11-26T04:32:19.596Z,4.77
2022-11-26T04:34:47.251Z,4.87
2022-11-26T04:37:14.923Z,5.53
2022-11-26T04:39:42.944Z,4.37
2022-11-26T04:42:12.368Z,5.30
2022-11-26T04:44:40.144Z,5.20
2022-11-26T04:47:08.067Z,5.40
2022-11-26T04:49:35.746Z,5.67
2022-11-26T04:52:03.569Z,4.00
2022-11-26T04:54:31.218Z,5.20
2022-11-26T04:56:58.907Z,4.60
2022-11-26T04:59:28.025Z,4.87
2022-11-26T05:01:56.796Z,4.63
2022-11-26T05:04:25.310Z,5.00
2022-11-26T05:06:52.949Z,4.83
2022-11-26T05:09:21.343Z,5.00
2022-11-26T05:11:48.941Z,4.40
2022-11-26T05:14:17.263Z,5.10
2022-11-26T05:16:46.389Z,5.00
2022-11-26T05:19:14.470Z,5.50
2022-11-26T05:21:42.688Z,5.80
2022-11-26T05:24:10.697Z,5.70
2022-11-26T05:26:38.342Z,5.60
2022-11-26T05:29:06.025Z,5.60
2022-11-26T05:31:33.718Z,5.13
2022-11-26T05:34:02.865Z,5.50
2022-11-26T05:36:31.069Z,5.20
2022-11-26T05:38:58.789Z,5.93
2022-11-26T05:41:26.491Z,5.87
2022-11-26T05:43:54.214Z,6.07
2022-11-26T05:46:23.594Z,5.60
2022-11-26T05:48:51.411Z,5.87
2022-11-26T05:51:20.390Z,5.73
2022-11-26T05:53:48.945Z,5.37
2022-11-26T05:56:18.885Z,6.07
2022-11-26T05:58:47.034Z,5.70
2022-11-26T06:01:14.842Z,5.50
2022-11-26T06:03:43.191Z,6.70
2022-11-26T06:06:11.175Z,5.57
2022-11-26T06:08:40.529Z,5.90
2022-11-26T06:11:08.272Z,5.00
2022-11-26T06:13:36.341Z,5.83
2022-11-26T06:16:05.665Z,7.30
2022-11-26T06:18:33.706Z,14.30
2022-11-26T06:21:01.571Z,24.40
2022-11-26T06:23:29.378Z,18.87
2022-11-26T06:25:58.449Z,9.80
2022-11-26T06:28:26.249Z,11.47
2022-11-26T06:30:54.340Z,10.33
2022-11-26T06:33:22.104Z,8.63
2022-11-26T06:35:49.744Z,9.57
2022-11-26T06:38:17.418Z,12.10
2022-11-26T06:40:45.574Z,10.63
2022-11-26T06:43:14.940Z,10.90
2022-11-26T06:45:43.095Z,8.87
2022-11-26T06:48:10.847Z,8.80
2022-11-26T06:50:38.499Z,8.27
2022-11-26T06:53:06.221Z,8.50
2022-11-26T06:55:33.886Z,11.40
2022-11-26T06:58:01.566Z,9.87
2022-11-26T07:00:30.987Z,9.37
2022-11-26T07:02:59.143Z,9.13
2022-11-26T07:05:27.151Z,10.10
2022-11-26T07:07:55.384Z,9.67
2022-11-26T07:10:23.436Z,12.13
2022-11-26T07:12:51.253Z,8.93
2022-11-26T07:15:19.641Z,9.10
2022-11-26T07:17:48.621Z,8.60
2022-11-26T07:20:16.442Z,7.13
2022-11-26T07:22:44.119Z,10.00
2022-11-26T07:25:12.927Z,9.13
2022-11-26T07:27:40.939Z,7.50
2022-11-26T07:30:10.238Z,8.77
2022-11-26T07:32:37.863Z,9.70
2022-11-26T07:35:07.743Z,7.87
2022-11-26T07:37:35.417Z,9.40
2022-11-26T07:40:03.569Z,9.53
2022-11-26T07:42:33.497Z,7.43
2022-11-26T07:45:01.894Z,7.07
2022-11-26T07:47:29.839Z,6.87
2022-11-26T07:49:58.084Z,6.10
2022-11-26T07:52:27.210Z,7.07
2022-11-26T07:54:55.479Z,15.10
2022-11-26T07:57:23.105Z,14.87
2022-11-26T07:59:50.704Z,14.00
2022-11-26T08:02:19.324Z,12.13
2022-11-26T08:04:46.962Z,10.17
2022-11-26T08:07:20.105Z,10.90
2022-11-26T08:09:54.144Z,8.20
2022-11-26T08:12:21.787Z,8.97
2022-11-26T08:14:49.492Z,7.00
2022-11-26T08:17:17.159Z,7.10
2022-11-26T08:19:44.966Z,7.23
2022-11-26T08:22:12.990Z,6.27
2022-11-26T08:24:41.048Z,6.03
2022-11-26T08:27:10.712Z,6.00
2022-11-26T08:29:39.128Z,5.30
2022-11-26T08:32:07.373Z,4.90
2022-11-26T08:34:35.392Z,5.00
2022-11-26T08:37:03.265Z,6.23
2022-11-26T08:39:31.357Z,5.60
2022-11-26T08:41:59.234Z,6.10
2022-11-26T08:44:28.552Z,5.20
2022-11-26T08:46:57.248Z,5.77
2022-11-26T08:49:25.802Z,5.60
2022-11-26T08:51:56.299Z,4.30
2022-11-26T08:54:24.093Z,5.63
2022-11-26T08:56:52.401Z,5.60
2022-11-26T08:59:22.878Z,5.20
2022-11-26T09:01:52.787Z,5.40
2022-11-26T09:04:20.479Z,5.73
2022-11-26T09:06:48.552Z,5.10
2022-11-26T09:09:17.565Z,5.00
2022-11-26T09:11:49.400Z,5.00
2022-11-26T09:14:20.228Z,5.33
2022-11-26T09:16:48.240Z,5.00
2022-11-26T09:19:18.404Z,5.60
2022-11-26T09:21:46.822Z,5.30
2022-11-26T09:24:16.828Z,4.80
2022-11-26T09:26:45.673Z,5.63
2022-11-26T09:29:14.356Z,4.90
2022-11-26T09:32:00.623Z,5.83
2022-11-26T09:34:32.070Z,5.83
2022-11-26T09:36:59.753Z,6.40
2022-11-26T09:39:28.448Z,6.07
2022-11-26T09:42:04.611Z,6.07
2022-11-26T09:44:55.393Z,6.40
2022-11-26T09:47:27.182Z,5.20
2022-11-26T09:50:06.322Z,5.40
2022-11-26T09:52:38.507Z,5.63
2022-11-26T09:55:16.554Z,4.97
2022-11-26T09:57:55.449Z,5.77
2022-11-26T10:00:26.872Z,5.00
2022-11-26T10:02:56.006Z,5.77
2022-11-26T10:05:38.554Z,5.77
2022-11-26T10:08:21.132Z,5.43
2022-11-26T10:10:58.779Z,5.93
2022-11-26T10:13:41.008Z,5.27
2022-11-26T10:16:15.942Z,4.83
2022-11-26T10:18:52.430Z,5.00
2022-11-26T10:21:37.922Z,5.43
2022-11-26T10:24:20.634Z,5.77
2022-11-26T10:26:49.512Z,5.30
2022-11-26T10:29:23.968Z,5.37
2022-11-26T10:31:58.897Z,5.30
2022-11-26T10:34:37.415Z,6.03
2022-11-26T10:37:08.075Z,5.93
2022-11-26T10:39:35.832Z,6.90
2022-11-26T10:42:29.256Z,6.43
2022-11-26T10:44:56.919Z,6.90
2022-11-26T10:47:27.926Z,5.60
2022-11-26T10:49:58.312Z,6.30
2022-11-26T10:52:30.522Z,6.10
2022-11-26T10:55:11.126Z,6.10
2022-11-26T10:57:44.971Z,6.00
2022-11-26T11:00:38.114Z,8.60
2022-11-26T11:03:15.346Z,6.53
2022-11-26T11:05:45.106Z,7.20
2022-11-26T11:08:30.185Z,6.30
2022-11-26T11:11:00.470Z,5.83
2022-11-26T11:13:41.005Z,6.97
2022-11-26T11:16:10.462Z,5.80
2022-11-26T11:18:38.363Z,6.53
2022-11-26T11:21:07.439Z,7.30
2022-11-26T11:24:08.109Z,5.90
2022-11-26T11:26:28.741Z,5.43
2022-11-26T11:28:58.159Z,4.37
2022-11-26T11:31:28.835Z,5.10
2022-11-26T11:34:14.133Z,4.20
2022-11-26T11:36:42.193Z,4.63
2022-11-26T11:39:29.353Z,4.17
2022-11-26T11:41:58.938Z,5.00
2022-11-26T11:44:28.528Z,4.80
2022-11-26T11:47:25.749Z,5.50
2022-11-26T11:50:13.016Z,5.83
2022-11-26T11:52:54.784Z,4.67
2022-11-26T11:55:37.170Z,5.60
2022-11-26T11:58:30.717Z,5.73
2022-11-26T12:01:07.612Z,5.60
2022-11-26T12:04:08.412Z,5.17
2022-11-26T12:06:50.878Z,5.47
2022-11-26T12:09:25.720Z,4.80
2022-11-26T12:12:00.276Z,5.60
2022-11-26T12:14:35.775Z,5.60
2022-11-26T12:17:08.581Z,5.20
2022-11-26T12:19:42.540Z,4.63
2022-11-26T12:22:19.629Z,4.70
2022-11-26T12:24:51.886Z,5.67
2022-11-26T12:27:32.703Z,4.30
2022-11-26T12:30:05.316Z,4.57
2022-11-26T12:32:37.467Z,4.50
2022-11-26T12:35:12.869Z,4.67
2022-11-26T12:37:42.120Z,4.43
2022-11-26T12:40:26.074Z,5.00
2022-11-26T12:42:59.851Z,4.60
2022-11-26T12:45:41.857Z,8.80
2022-11-26T12:48:19.678Z,4.90
2022-11-26T12:50:53.804Z,4.30
2022-11-26T12:53:38.154Z,4.40
2022-11-26T12:56:14.900Z,4.20
2022-11-26T12:58:52.986Z,3.13
2022-11-26T13:01:20.903Z,3.70
2022-11-26T13:03:48.783Z,3.60
2022-11-26T13:06:28.490Z,3.47
2022-11-26T13:09:05.499Z,3.70
2022-11-26T13:11:43.784Z,3.67
2022-11-26T13:14:20.780Z,2.83
2022-11-26T13:16:56.347Z,5.53
2022-11-26T13:19:32.017Z,4.00
2022-11-26T13:22:19.874Z,4.80
2022-11-26T13:25:02.155Z,3.30
2022-11-26T13:27:45.217Z,3.30
2022-11-26T13:30:21.121Z,3.60
2022-11-26T13:33:20.442Z,2.90
2022-11-26T13:36:13.654Z,2.97
2022-11-26T13:38:57.041Z,3.60
2022-11-26T13:41:47.441Z,3.17
2022-11-26T13:44:56.291Z,3.00
2022-11-26T13:47:30.908Z,2.73
2022-11-26T13:50:03.548Z,2.77
2022-11-26T13:52:38.390Z,2.80
2022-11-26T13:55:12.567Z,3.50
2022-11-26T13:57:44.026Z,2.63
2022-11-26T14:00:12.817Z,2.47
2022-11-26T14:02:44.480Z,2.90
2022-11-26T14:05:15.413Z,2.67
2022-11-26T14:07:45.280Z,3.50
2022-11-26T14:10:45.392Z,2.90
2022-11-26T14:13:17.340Z,2.40
2022-11-26T14:15:53.493Z,2.80
2022-11-26T14:19:01.386Z,3.10
2022-11-26T14:21:31.109Z,2.73
2022-11-26T14:24:01.362Z,2.20
2022-11-26T14:26:34.171Z,2.27
2022-11-26T14:29:12.372Z,2.30
2022-11-26T14:31:44.135Z,2.23
2022-11-26T14:34:18.217Z,3.07
2022-11-26T14:36:54.856Z,2.90
2022-11-26T14:39:22.528Z,3.17
2022-11-26T14:42:00.361Z,2.90
2022-11-26T14:44:32.648Z,3.13
2022-11-26T14:47:09.470Z,3.73
2022-11-26T14:49:42.626Z,2.90
2022-11-26T14:52:20.313Z,3.50
2022-11-26T14:54:52.008Z,3.40
2022-11-26T14:57:24.834Z,3.00
2022-11-26T14:59:56.594Z,3.43
2022-11-26T15:02:26.939Z,3.67
2022-11-26T15:05:04.363Z,3.67
2022-11-26T15:07:32.687Z,3.50
2022-11-26T15:10:08.036Z,3.50
2022-11-26T15:12:37.315Z,4.40
2022-11-26T15:15:06.960Z,5.27
2022-11-26T15:17:35.387Z,5.80
2022-11-26T15:20:08.994Z,6.50
2022-11-26T15:22:39.755Z,4.83
2022-11-26T15:25:17.596Z,5.60
2022-11-26T15:27:54.075Z,4.40
2022-11-26T15:30:24.441Z,4.27
2022-11-26T15:32:57.887Z,4.93
2022-11-26T15:35:27.477Z,4.30
2022-11-26T15:37:55.371Z,3.40
2022-11-26T15:40:25.089Z,4.13
2022-11-26T15:42:57.686Z,3.67
2022-11-26T15:45:35.332Z,3.83
2022-11-26T15:48:04.491Z,4.37
2022-11-26T15:50:37.282Z,4.63
2022-11-26T15:53:08.628Z,3.93
2022-11-26T15:55:37.999Z,4.13
2022-11-26T15:58:09.787Z,5.07
2022-11-26T16:00:40.943Z,4.60
2022-11-26T16:03:47.118Z,4.03
2022-11-26T16:06:31.846Z,4.17
2022-11-26T16:09:03.035Z,4.10
2022-11-26T16:11:34.354Z,4.37
2022-11-26T16:14:24.533Z,3.97
2022-11-26T16:16:53.124Z,5.93
2022-11-26T16:19:22.619Z,4.93
2022-11-26T16:21:53.474Z,5.70
2022-11-26T16:24:30.590Z,7.90
2022-11-26T16:27:00.830Z,6.00
2022-11-26T16:29:30.105Z,5.87
2022-11-26T16:31:57.831Z,6.13
2022-11-26T16:34:27.407Z,5.70
2022-11-26T16:37:02.209Z,4.77
2022-11-26T16:39:36.167Z,6.57
2022-11-26T16:42:15.084Z,14.90
2022-11-26T16:44:42.893Z,10.10
2022-11-26T16:47:15.636Z,6.33
2022-11-26T16:49:43.295Z,7.10
2022-11-26T16:52:19.857Z,6.70
2022-11-26T16:54:49.528Z,6.40
2022-11-26T16:57:19.843Z,7.10
2022-11-26T16:59:59.556Z,9.73
2022-11-26T17:02:27.414Z,10.63
2022-11-26T17:04:55.328Z,6.10
2022-11-26T17:07:26.180Z,7.40
2022-11-26T17:09:55.746Z,10.40
2022-11-26T17:12:25.038Z,9.80
2022-11-26T17:17:30.144Z,7.40
2022-11-26T17:19:57.776Z,6.87
2022-11-26T17:22:25.601Z,8.17
2022-11-26T17:24:53.467Z,8.00
2022-11-26T17:27:23.430Z,7.73
2022-11-26T17:29:51.213Z,8.27
2022-11-26T17:32:20.587Z,6.50
2022-11-26T17:34:49.007Z,7.30
2022-11-26T17:37:22.001Z,7.40
2022-11-26T17:39:50.210Z,5.53
2022-11-26T17:42:20.009Z,7.10
2022-11-26T17:44:51.746Z,6.23
2022-11-26T17:47:21.234Z,8.23
2022-11-26T17:49:50.049Z,10.43
2022-11-26T17:52:18.432Z,11.37
2022-11-26T17:54:46.862Z,8.67
2022-11-26T17:57:16.194Z,10.03
2022-11-26T17:59:44.424Z,10.90
2022-11-26T18:02:13.979Z,10.70
2022-11-26T18:04:41.738Z,10.20
2022-11-26T18:07:13.963Z,8.13
2022-11-26T18:09:42.669Z,9.40
2022-11-26T18:12:23.121Z,8.37
2022-11-26T18:14:52.810Z,7.97
2022-11-26T18:17:21.874Z,8.40
2022-11-26T18:19:50.164Z,9.67
2022-11-26T18:22:20.784Z,8.33
2022-11-26T18:24:56.515Z,7.50
2022-11-26T18:27:26.678Z,8.13
2022-11-26T18:29:54.714Z,7.20
2022-11-26T18:32:23.754Z,7.27
2022-11-26T18:34:51.494Z,8.33
2022-11-26T18:37:19.492Z,7.30
2022-11-26T18:39:47.289Z,6.50
2022-11-26T18:42:35.961Z,7.53
2022-11-26T18:45:02.662Z,7.47
2022-11-26T18:47:31.669Z,7.60
2022-11-26T18:49:59.335Z,8.40
2022-11-26T18:52:27.211Z,8.30
2022-11-26T18:54:54.946Z,7.87
2022-11-26T18:57:22.620Z,8.00
2022-11-26T18:59:51.506Z,7.20
2022-11-26T19:02:19.432Z,7.37
2022-11-26T19:04:48.876Z,6.70
2022-11-26T19:07:16.638Z,7.07
2022-11-26T19:09:44.346Z,7.57
2022-11-26T19:12:13.609Z,6.77
2022-11-26T19:14:41.517Z,7.70
2022-11-26T19:17:09.221Z,6.90
2022-11-26T19:19:39.284Z,6.90
2022-11-26T19:22:08.460Z,7.30
2022-11-26T19:24:36.202Z,8.70
2022-11-26T19:27:03.843Z,9.53
2022-11-26T19:29:31.510Z,8.80
2022-11-26T19:31:59.247Z,10.30
2022-11-26T19:34:26.940Z,18.97
2022-11-26T19:36:57.630Z,16.17
2022-11-26T19:39:26.720Z,12.07
2022-11-26T19:41:55.340Z,12.63
2022-11-26T19:44:23.142Z,12.43
2022-11-26T19:46:53.240Z,13.17
2022-11-26T19:49:20.855Z,12.33
2022-11-26T19:51:48.766Z,11.73
2022-11-26T19:54:16.433Z,10.87
2022-11-26T19:56:46.779Z,11.00
2022-11-26T19:59:14.532Z,10.20
2022-11-26T20:01:43.020Z,10.03
2022-11-26T20:04:14.111Z,9.97
2022-11-26T20:06:42.304Z,10.50
2022-11-26T20:09:13.051Z,9.17
2022-11-26T20:11:42.400Z,11.00
2022-11-26T20:14:13.572Z,8.90
2022-11-26T20:16:44.224Z,9.17
2022-11-26T20:19:13.217Z,9.57
2022-11-26T20:21:40.978Z,8.87
2022-11-26T20:24:13.031Z,9.80
2022-11-26T20:26:43.168Z,10.50
2022-11-26T20:29:14.141Z,10.67
2022-11-26T20:31:46.439Z,8.77
2022-11-26T20:34:15.699Z,9.40
2022-11-26T20:36:43.565Z,9.43
2022-11-26T20:39:14.043Z,8.83
2022-11-26T20:41:45.229Z,8.73
2022-11-26T20:44:15.252Z,9.33
2022-11-26T20:46:43.949Z,10.47
2022-11-26T20:49:12.197Z,10.53
2022-11-26T20:51:41.623Z,9.80
2022-11-26T20:54:10.664Z,10.10
2022-11-26T20:56:38.813Z,9.90
2022-11-26T20:59:09.784Z,9.33
2022-11-26T21:01:39.548Z,9.93
2022-11-26T21:04:08.218Z,9.87
2022-11-26T21:06:36.737Z,9.73
2022-11-26T21:09:07.277Z,11.63
2022-11-26T21:11:35.641Z,10.20
2022-11-26T21:14:03.809Z,10.57
2022-11-26T21:16:32.914Z,11.37
2022-11-26T21:19:02.035Z,9.90
2022-11-26T21:21:30.425Z,10.40
2022-11-26T21:23:58.765Z,9.60
2022-11-26T21:26:28.365Z,11.67
2022-11-26T21:28:58.010Z,14.30
2022-11-26T21:31:26.858Z,10.90
2022-11-26T21:33:57.099Z,12.80
2022-11-26T21:36:26.627Z,13.57
2022-11-26T21:38:55.766Z,13.20
2022-11-26T21:41:24.547Z,12.60
2022-11-26T21:43:52.806Z,12.27
2022-11-26T21:46:22.042Z,12.10
2022-11-26T21:48:50.305Z,11.03
2022-11-26T21:51:18.742Z,10.67
2022-11-26T21:53:49.858Z,11.10
2022-11-26T21:56:19.629Z,12.47
2022-11-26T21:58:47.661Z,13.23
2022-11-26T22:01:17.125Z,13.13
2022-11-26T22:03:47.397Z,14.00
2022-11-26T22:06:16.463Z,12.33
2022-11-26T22:08:44.831Z,14.80
2022-11-26T22:11:16.181Z,14.60
2022-11-26T22:13:44.297Z,14.70
2022-11-26T22:16:14.187Z,12.97
2022-11-26T22:18:43.462Z,12.70
2022-11-26T22:21:14.094Z,14.57
2022-11-26T22:23:41.751Z,14.53
2022-11-26T22:26:09.676Z,13.27
2022-11-26T22:28:39.474Z,13.43
2022-11-26T22:31:12.660Z,14.60
2022-11-26T22:33:40.837Z,13.60
2022-11-26T22:36:10.171Z,14.87
2022-11-26T22:38:38.856Z,13.80
2022-11-26T22:41:09.248Z,14.70
2022-11-26T22:43:38.722Z,14.90
2022-11-26T22:46:07.942Z,11.93
2022-11-26T22:48:36.490Z,13.20
2022-11-26T22:51:04.746Z,14.67
2022-11-26T22:53:33.343Z,14.10
2022-11-26T22:56:03.161Z,14.50
2022-11-26T22:58:33.566Z,13.60
2022-11-26T23:01:05.063Z,14.77
2022-11-26T23:03:35.292Z,15.00
2022-11-26T23:06:04.633Z,13.67
2022-11-26T23:08:32.517Z,14.23
2022-11-26T23:11:16.387Z,13.33
2022-11-26T23:13:46.223Z,15.13
2022-11-26T23:16:15.451Z,14.60
2022-11-26T23:18:44.036Z,14.20
2022-11-26T23:21:14.058Z,15.23
2022-11-26T23:23:43.136Z,15.10
2022-11-26T23:26:14.552Z,14.00
2022-11-26T23:28:42.326Z,13.67
2022-11-26T23:31:14.895Z,13.60
2022-11-26T23:33:44.127Z,14.30
2022-11-26T23:36:12.792Z,13.50
2022-11-26T23:38:40.761Z,14.17
2022-11-26T23:41:09.956Z,14.30
2022-11-26T23:43:39.260Z,13.27
2022-11-26T23:46:08.839Z,14.20
2022-11-26T23:48:37.563Z,14.93
2022-11-26T23:51:09.620Z,13.00
2022-11-26T23:53:38.208Z,13.33
2022-11-26T23:56:08.248Z,11.60
2022-11-26T23:58:36.285Z,12.00
